Schneifelwetter: Wetterstation Hallschlag, 537 m . NN
Wetterdaten: Freitag, 12.03.2010
Datum Zeit Temp. A. Feuchte A. Luftdruck Regen Wind Richtung Richtung Sonnenschein Helligkeit T Regen Taupunkt Windchill
12.03.2010 00:10 -3,6 C 94 % 1015 hPa 0,0 l/m 10,9 km/h (2 Bft) N 360 0 min 0 lux 0,00 min -4,4 C -8,2 C
12.03.2010 00:25 -3,5 C 94 % 1015 hPa 0,0 l/m 11,1 km/h (2 Bft) N 360 0 min 0 lux 0,00 min -4,3 C -8,3 C
12.03.2010 00:40 -3,6 C 94 % 1015 hPa 0,0 l/m 5,2 km/h (1 Bft) N 360 0 min 0 lux 0,00 min -4,4 C -3,6 C
12.03.2010 00:55 -3,6 C 94 % 1015 hPa 0,0 l/m 4,0 km/h (1 Bft) N 360 0 min 0 lux 0,00 min -4,4 C -3,6 C
12.03.2010 01:10 -3,6 C 93 % 1015 hPa 0,0 l/m 0,0 km/h (0 Bft) N 360 0 min 0 lux 0,00 min -4,6 C -3,6 C
12.03.2010 01:25 -3,6 C 93 % 1015 hPa 0,0 l/m 0,0 km/h (0 Bft) N 360 0 min 0 lux 0,00 min -4,6 C -3,6 C
12.03.2010 01:40 -3,7 C 93 % 1015 hPa 0,0 l/m 0,0 km/h (0 Bft) N 360 0 min 0 lux 0,00 min -4,7 C -3,7 C
12.03.2010 01:55 -3,7 C 93 % 1015 hPa 0,0 l/m 4,0 km/h (1 Bft) N 360 0 min 0 lux 0,00 min -4,7 C -3,7 C
12.03.2010 02:10 -3,7 C 93 % 1015 hPa 0,0 l/m 0,3 km/h (0 Bft) N 360 0 min 0 lux 0,00 min -4,7 C -3,7 C
12.03.2010 02:25 -3,7 C 93 % 1015 hPa 0,0 l/m 1,9 km/h (1 Bft) N 360 0 min 0 lux 0,00 min -4,7 C -3,7 C
12.03.2010 02:40 -3,6 C 93 % 1015 hPa 0,0 l/m 1,7 km/h (1 Bft) N 360 0 min 0 lux 0,00 min -4,6 C -3,6 C
12.03.2010 02:55 -3,6 C 93 % 1015 hPa 0,0 l/m 3,9 km/h (1 Bft) N 360 0 min 0 lux 0,00 min -4,6 C -3,6 C
12.03.2010 03:10 -3,4 C 93 % 1015 hPa 0,0 l/m 0,0 km/h (0 Bft) N 360 0 min 0 lux 0,00 min -4,4 C -3,4 C
12.03.2010 03:25 -3,4 C 93 % 1015 hPa 0,0 l/m 4,2 km/h (1 Bft) N 360 0 min 0 lux 0,00 min -4,4 C -3,4 C
12.03.2010 03:40 -3,3 C 93 % 1015 hPa 0,0 l/m 3,1 km/h (1 Bft) N 360 0 min 0 lux 0,00 min -4,3 C -3,3 C
12.03.2010 03:55 -3,1 C 93 % 1015 hPa 0,0 l/m 7,3 km/h (2 Bft) W-NW22.5 295 0 min 0 lux 0,00 min -4,1 C -4,1 C
12.03.2010 04:10 -3,0 C 93 % 1015 hPa 0,0 l/m 6,7 km/h (2 Bft) W 280 0 min 0 lux 0,00 min -4,0 C -3,3 C
12.03.2010 04:25 -2,9 C 93 % 1015 hPa 0,0 l/m 6,3 km/h (2 Bft) W 280 0 min 0 lux 0,00 min -3,9 C -2,9 C
12.03.2010 04:40 -2,8 C 93 % 1015 hPa 0,0 l/m 7,6 km/h (2 Bft) W22.5 280 0 min 0 lux 0,00 min -3,8 C -4,2 C
12.03.2010 04:55 -2,7 C 93 % 1015 hPa 0,0 l/m 7,1 km/h (2 Bft) W 280 0 min 0 lux 0,00 min -3,7 C -3,5 C
12.03.2010 05:10 -2,6 C 93 % 1015 hPa 0,0 l/m 6,8 km/h (2 Bft) W 280 0 min 0 lux 0,00 min -3,6 C -3,0 C
12.03.2010 05:25 -2,6 C 94 % 1015 hPa 0,0 l/m 5,3 km/h (1 Bft) W 280 0 min 0 lux 0,00 min -3,4 C -2,6 C
12.03.2010 05:40 -2,5 C 94 % 1015 hPa 0,0 l/m 6,3 km/h (2 Bft) W 280 0 min 0 lux 0,00 min -3,3 C -2,5 C
12.03.2010 05:55 -2,5 C 94 % 1015 hPa 0,0 l/m 3,1 km/h (1 Bft) W 280 0 min 0 lux 0,00 min -3,3 C -2,5 C
12.03.2010 06:10 -2,4 C 94 % 1015 hPa 0,0 l/m 6,8 km/h (2 Bft) W 280 0 min 0 lux 0,00 min -3,2 C -2,8 C
12.03.2010 06:25 -2,4 C 94 % 1015 hPa 0,0 l/m 5,7 km/h (1 Bft) W 280 0 min 0 lux 0,00 min -3,2 C -2,4 C
12.03.2010 06:40 -2,4 C 94 % 1015 hPa 0,0 l/m 6,1 km/h (2 Bft) W 280 0 min 73 lux 0,00 min -3,2 C -2,4 C
12.03.2010 06:55 -2,4 C 94 % 1015 hPa 0,0 l/m 5,4 km/h (1 Bft) W 280 0 min 307 lux 0,00 min -3,2 C -2,4 C
12.03.2010 07:10 -2,4 C 94 % 1015 hPa 0,0 l/m 4,1 km/h (1 Bft) W 280 0 min 785 lux 0,00 min -3,2 C -2,4 C
12.03.2010 07:25 -2,4 C 94 % 1015 hPa 0,0 l/m 4,5 km/h (1 Bft) W 280 0 min 1,81 klux 0,00 min -3,2 C -2,4 C
12.03.2010 07:40 -2,3 C 94 % 1015 hPa 0,0 l/m 2,3 km/h (1 Bft) W 280 0 min 2,36 klux 0,00 min -3,1 C -2,3 C
12.03.2010 08:00 -2,1 C 94 % 1015 hPa 0,0 l/m 6,8 km/h (2 Bft) W 280 0 min 3,89 klux 0,00 min -2,9 C -2,5 C
12.03.2010 08:16 -1,8 C 94 % 1015 hPa 0,0 l/m 6,4 km/h (2 Bft) W 280 0 min 5,20 klux 0,00 min -2,6 C -1,8 C
12.03.2010 08:31 -1,4 C 93 % 1015 hPa 0,0 l/m 7,1 km/h (2 Bft) W 280 0 min 6,24 klux 0,00 min -2,4 C -2,2 C
12.03.2010 08:46 -1,1 C 93 % 1015 hPa 0,0 l/m 8,1 km/h (2 Bft) W 280 0 min 9,4 klux 0,00 min -2,1 C -2,9 C
12.03.2010 09:01 -0,8 C 93 % 1016 hPa 0,0 l/m 10,0 km/h (2 Bft) W22.5 275 0 min 10,7 klux 0,00 min -1,8 C -4,3 C
12.03.2010 09:16 -0,4 C 93 % 1016 hPa 0,0 l/m 8,7 km/h (2 Bft) W-SW 245 0 min 12,9 klux 0,00 min -1,4 C -2,7 C
12.03.2010 09:30 0,0 C 92 % 1016 hPa 0,0 l/m 7,0 km/h (2 Bft) W-SW 245 0 min 15,5 klux 0,00 min -1,1 C -0,6 C
12.03.2010 09:45 0,5 C 91 % 1016 hPa 0,0 l/m 8,8 km/h (2 Bft) W-SW 245 0 min 17,8 klux 0,00 min -0,8 C -1,9 C
12.03.2010 10:01 0,8 C 90 % 1016 hPa 0,0 l/m 9,6 km/h (2 Bft) W-SW 250 0 min 18,7 klux 0,00 min -0,6 C -2,2 C
12.03.2010 10:16 1,1 C 89 % 1016 hPa 0,0 l/m 8,7 km/h (2 Bft) W-SW 250 0 min 18,6 klux 0,00 min -0,5 C -1,1 C
12.03.2010 10:31 1,3 C 89 % 1016 hPa 0,0 l/m 7,9 km/h (2 Bft) W-SW 250 0 min 22,4 klux 0,00 min -0,3 C -0,2 C
12.03.2010 10:46 1,8 C 89 % 1016 hPa 0,0 l/m 4,5 km/h (1 Bft) W-SW 250 0 min 23,3 klux 0,00 min 0,2 C 1,8 C
12.03.2010 11:01 2,2 C 87 % 1016 hPa 0,0 l/m 9,4 km/h (2 Bft) W-SW 250 0 min 22,5 klux 0,00 min 0,3 C -0,5 C
12.03.2010 11:15 2,3 C 86 % 1016 hPa 0,0 l/m 9,0 km/h (2 Bft) W-SW 250 0 min 20,7 klux 0,00 min 0,2 C -0,1 C
12.03.2010 11:30 2,8 C 86 % 1016 hPa 0,0 l/m 9,3 km/h (2 Bft) W-SW 245 15 min 29,7 klux 0,00 min 0,7 C 0,2 C
12.03.2010 11:46 3,2 C 85 % 1016 hPa 0,0 l/m 8,7 km/h (2 Bft) W-SW 250 16 min 28,5 klux 0,00 min 0,9 C 1,1 C
12.03.2010 12:01 3,5 C 83 % 1016 hPa 0,0 l/m 13,3 km/h (3 Bft) W-SW 250 15 min 31,0 klux 0,00 min 0,9 C -1,8 C
12.03.2010 12:16 3,4 C 82 % 1016 hPa 0,0 l/m 13,0 km/h (3 Bft) W-SW 250 15 min 33,8 klux 0,00 min 0,6 C -1,7 C
12.03.2010 12:31 3,5 C 82 % 1016 hPa 0,0 l/m 14,4 km/h (3 Bft) W-SW 250 15 min 33,4 klux 0,00 min 0,7 C -2,4 C
12.03.2010 12:46 3,1 C 82 % 1016 hPa 0,0 l/m 17,7 km/h (3 Bft) W-SW22.5 255 15 min 32,0 klux 0,00 min 0,3 C -4,6 C
12.03.2010 13:00 2,7 C 83 % 1016 hPa 0,0 l/m 17,1 km/h (3 Bft) W-SW 250 0 min 26,5 klux 0,00 min 0,1 C -4,8 C
12.03.2010 13:15 2,1 C 84 % 1016 hPa 0,0 l/m 19,0 km/h (3 Bft) W-SW22.5 255 0 min 18,5 klux 0,00 min -0,3 C -6,5 C
12.03.2010 13:30 1,9 C 85 % 1016 hPa 0,0 l/m 17,6 km/h (3 Bft) W-SW22.5 250 0 min 18,9 klux 0,00 min -0,3 C -6,1 C
12.03.2010 13:46 1,8 C 85 % 1016 hPa 0,0 l/m 16,6 km/h (3 Bft) W-SW 250 0 min 20,1 klux 0,00 min -0,4 C -5,7 C
12.03.2010 14:01 1,7 C 85 % 1017 hPa 0,0 l/m 14,8 km/h (3 Bft) W-SW 245 0 min 16,4 klux 0,00 min -0,5 C -4,8 C
12.03.2010 14:16 2,1 C 85 % 1016 hPa 0,0 l/m 13,9 km/h (3 Bft) W-SW 250 0 min 22,3 klux 0,00 min -0,2 C -3,8 C
12.03.2010 14:31 2,2 C 84 % 1016 hPa 0,0 l/m 11,9 km/h (2 Bft) W-SW 250 0 min 21,6 klux 0,00 min -0,2 C -2,4 C
12.03.2010 14:45 2,5 C 84 % 1016 hPa 0,0 l/m 13,6 km/h (3 Bft) W-SW 250 0 min 24,2 klux 0,00 min 0,1 C -3,1 C
12.03.2010 15:00 2,6 C 83 % 1016 hPa 0,0 l/m 11,8 km/h (2 Bft) W-SW 250 0 min 22,8 klux 0,00 min 0,0 C -1,9 C
12.03.2010 15:15 2,5 C 83 % 1016 hPa 0,0 l/m 12,8 km/h (3 Bft) W-SW 255 0 min 22,4 klux 0,00 min -0,1 C -2,6 C
12.03.2010 15:31 2,7 C 82 % 1016 hPa 0,0 l/m 11,7 km/h (2 Bft) W 265 0 min 20,4 klux 0,00 min -0,1 C -1,7 C
12.03.2010 15:46 2,5 C 82 % 1016 hPa 0,0 l/m 7,8 km/h (2 Bft) W-SW 245 0 min 17,5 klux 0,00 min -0,3 C 1,2 C
12.03.2010 16:01 2,4 C 82 % 1016 hPa 0,0 l/m 4,6 km/h (1 Bft) W-SW 245 0 min 15,0 klux 0,00 min -0,4 C 2,4 C
12.03.2010 16:16 2,4 C 83 % 1016 hPa 0,0 l/m 9,6 km/h (2 Bft) W-SW 245 0 min 14,4 klux 0,00 min -0,2 C -0,5 C
12.03.2010 16:30 2,5 C 81 % 1017 hPa 0,0 l/m 6,1 km/h (2 Bft) W-SW 245 0 min 13,5 klux 0,00 min -0,4 C 2,5 C
12.03.2010 16:45 2,3 C 82 % 1017 hPa 0,0 l/m 10,1 km/h (2 Bft) W-SW 245 0 min 11,5 klux 0,00 min -0,4 C -1,0 C
12.03.2010 17:00 2,1 C 82 % 1017 hPa 0,0 l/m 7,2 km/h (2 Bft) W-SW 245 0 min 9,5 klux 0,00 min -0,6 C 1,3 C
12.03.2010 17:16 1,9 C 82 % 1017 hPa 0,0 l/m 8,9 km/h (2 Bft) W-SW 245 0 min 7,74 klux 0,00 min -0,8 C -0,5 C
12.03.2010 17:31 1,7 C 82 % 1017 hPa 0,0 l/m 9,7 km/h (2 Bft) W-SW 245 0 min 5,67 klux 0,00 min -1,0 C -1,3 C
12.03.2010 17:46 1,5 C 83 % 1017 hPa 0,0 l/m 9,6 km/h (2 Bft) W-SW 245 0 min 4,07 klux 0,00 min -1,1 C -1,5 C
12.03.2010 18:01 1,2 C 84 % 1017 hPa 0,0 l/m 8,9 km/h (2 Bft) W-SW 245 0 min 2,54 klux 0,00 min -1,2 C -1,2 C
12.03.2010 18:15 1,1 C 84 % 1017 hPa 0,0 l/m 5,7 km/h (1 Bft) W-SW22.5 250 0 min 1,63 klux 0,00 min -1,3 C 1,1 C
12.03.2010 18:30 0,7 C 84 % 1017 hPa 0,0 l/m 5,4 km/h (1 Bft) W-SW 245 0 min 891 lux 0,00 min -1,7 C 0,7 C
12.03.2010 18:45 0,5 C 84 % 1017 hPa 0,0 l/m 5,9 km/h (2 Bft) W-SW 245 0 min 309 lux 0,00 min -1,9 C 0,5 C
12.03.2010 19:01 0,3 C 85 % 1017 hPa 0,0 l/m 6,4 km/h (2 Bft) W-SW 245 0 min 85 lux 0,00 min -1,9 C 0,3 C
12.03.2010 19:16 0,0 C 85 % 1017 hPa 0,0 l/m 5,0 km/h (1 Bft) W-SW 245 0 min 18 lux 0,00 min -2,2 C 0,0 C
12.03.2010 19:31 -0,2 C 86 % 1017 hPa 0,0 l/m 3,3 km/h (1 Bft) W-SW 245 0 min 4 lux 0,00 min -2,3 C -0,2 C
12.03.2010 19:46 -0,4 C 86 % 1017 hPa 0,0 l/m 0,1 km/h (0 Bft) W-SW 245 0 min 0 lux 0,00 min -2,4 C -0,4 C
12.03.2010 20:00 -0,6 C 86 % 1018 hPa 0,0 l/m 1,9 km/h (1 Bft) W-SW 245 0 min 0 lux 0,00 min -2,6 C -0,6 C
12.03.2010 20:15 -0,6 C 86 % 1018 hPa 0,0 l/m 4,2 km/h (1 Bft) W-SW 245 0 min 0 lux 0,00 min -2,6 C -0,6 C
12.03.2010 20:30 -0,7 C 87 % 1018 hPa 0,0 l/m 5,2 km/h (1 Bft) W-SW 245 0 min 0 lux 0,00 min -2,6 C -0,7 C
12.03.2010 20:46 -0,7 C 87 % 1018 hPa 0,0 l/m 4,5 km/h (1 Bft) W-SW 245 0 min 0 lux 0,00 min -2,6 C -0,7 C
12.03.2010 21:01 -0,8 C 88 % 1018 hPa 0,0 l/m 3,1 km/h (1 Bft) W-SW 245 0 min 0 lux 0,00 min -2,5 C -0,8 C
12.03.2010 21:16 -0,8 C 88 % 1018 hPa 0,0 l/m 3,2 km/h (1 Bft) W-SW 245 0 min 0 lux 0,00 min -2,5 C -0,8 C
12.03.2010 21:31 -0,9 C 88 % 1018 hPa 0,0 l/m 4,9 km/h (1 Bft) W-SW 245 0 min 0 lux 0,00 min -2,6 C -0,9 C
12.03.2010 21:45 -0,9 C 88 % 1019 hPa 0,0 l/m 3,6 km/h (1 Bft) W-SW 245 0 min 0 lux 0,00 min -2,6 C -0,9 C
12.03.2010 22:00 -1,0 C 88 % 1018 hPa 0,0 l/m 0,8 km/h (0 Bft) W-SW 245 0 min 0 lux 0,00 min -2,7 C -1,0 C
12.03.2010 22:15 -1,0 C 89 % 1018 hPa 0,0 l/m 0,2 km/h (0 Bft) W-SW 245 0 min 0 lux 0,00 min -2,6 C -1,0 C
12.03.2010 22:31 -1,1 C 89 % 1019 hPa 0,0 l/m 0,3 km/h (0 Bft) W-SW 245 0 min 0 lux 0,00 min -2,7 C -1,1 C
12.03.2010 22:46 -1,1 C 89 % 1019 hPa 0,0 l/m 0,0 km/h (0 Bft) W-SW 245 0 min 0 lux 0,00 min -2,7 C -1,1 C
12.03.2010 23:01 -1,1 C 89 % 1019 hPa 0,0 l/m 0,6 km/h (0 Bft) W-SW 245 0 min 0 lux 0,00 min -2,7 C -1,1 C
12.03.2010 23:16 -1,1 C 89 % 1019 hPa 0,0 l/m 0,0 km/h (0 Bft) W-SW 245 0 min 0 lux 0,00 min -2,7 C -1,1 C
12.03.2010 23:30 -1,1 C 89 % 1019 hPa 0,0 l/m 0,0 km/h (0 Bft) W-SW 245 0 min 0 lux 0,00 min -2,7 C -1,1 C
12.03.2010 23:45 -1,1 C 89 % 1019 hPa 0,0 l/m 0,0 km/h (0 Bft) W-SW 245 0 min 0 lux 0,00 min -2,7 C -1,1 C
12.03.2010 23:55 -1,1 C 89 % 1019 hPa 0,0 l/m 0,0 km/h (0 Bft) W-SW 245 0 min 0 lux 0,00 min -2,7 C -1,1 C
_ Min-Zeit 01:40 16:30 00:10 - 01:10 - - - - - 01:40 00:25
Minimum _ -3,7 C 81 % 1015 hPa - 0,0 km/h (0 Bft) - - - - - -4,7 C -8,3 C
_ Max-Zeit 12:01 00:10 21:45 00:10 13:15 - - 11:46 12:16 00:10 11:46 16:30
Maximum _ 3,5 C 94 % 1019 hPa 0,0 l/m 19,0 km/h
W-SW (3 Bft)
- - 16 min 33,8 klux 0,00 min 0,9 C 2,5 C
Durchschnitt _ -0,4 C 89 % 1016 hPa #0,0 l/m 6,6 km/h (2 Bft) W-SW - #1:31 h 7,71 klux #0 min. -2,1 C -2,0 C